Terminal Aerodrome Forecast
Issued by NWS

Home | Current Version | Previous Version | Text Only | Print | Product List | Glossary On
Versions: 1 2 3 4 5 6 7 8 9 10 11 12 13 14 15 16 17 18 19
000
FTUS46 KMTR 272329
TAFSNS
TAF
KSNS 272329Z 2800/2824 30012KT 6SM HZ FU SCT045
      TEMPO 2801/2804 1SM BR BKN004 OVC045
     FM280400 29006KT 3/4SM BR HZ BKN004 OVC009
     FM281500 VRB03KT 6SM HZ FEW002 SCT035
     FM281800 29010KT 6SM HZ FU FEW004 SCT035=

USA.gov is the U.S. government's official web portal to all federal, state and local government web resources and services.